createdAt,value
2022-09-01T00:00:49.316Z,14.74
2022-09-01T00:05:55.226Z,14.58
2022-09-01T00:10:56.603Z,14.43
2022-09-01T00:15:58.037Z,14.35
2022-09-01T00:20:59.750Z,14.31
2022-09-01T00:26:01.110Z,14.25
2022-09-01T00:31:03.020Z,14.14
2022-09-01T00:36:05.448Z,14.04
2022-09-01T00:41:07.451Z,13.95
2022-09-01T00:46:10.776Z,13.90
2022-09-01T00:51:12.900Z,13.87
2022-09-01T00:56:14.490Z,13.86
2022-09-01T01:01:16.091Z,13.80
2022-09-01T01:06:20.042Z,13.65
2022-09-01T01:11:21.503Z,13.58
2022-09-01T01:16:25.166Z,13.45
2022-09-01T01:21:47.972Z,13.35
2022-09-01T01:26:49.715Z,13.31
2022-09-01T01:31:53.933Z,13.27
2022-09-01T01:36:59.816Z,13.19
2022-09-01T01:42:01.965Z,13.10
2022-09-01T01:47:08.306Z,13.03
2022-09-01T01:52:12.026Z,12.97
2022-09-01T01:57:17.818Z,12.79
2022-09-01T02:02:19.196Z,12.70
2022-09-01T02:07:20.554Z,12.60
2022-09-01T02:12:25.094Z,12.52
2022-09-01T02:17:27.401Z,12.43
2022-09-01T02:22:28.780Z,12.34
2022-09-01T02:27:30.115Z,12.32
2022-09-01T02:32:32.071Z,12.20
2022-09-01T02:37:33.892Z,12.16
2022-09-01T02:42:35.434Z,12.16
2022-09-01T02:47:36.771Z,12.16
2022-09-01T02:52:40.436Z,12.11
2022-09-01T02:57:41.780Z,11.96
2022-09-01T03:02:43.120Z,11.86
2022-09-01T03:07:44.672Z,11.77
2022-09-01T03:12:46.012Z,11.72
2022-09-01T03:17:49.399Z,11.68
2022-09-01T03:22:51.831Z,11.56
2022-09-01T03:27:53.223Z,11.53
2022-09-01T03:32:54.574Z,11.41
2022-09-01T03:37:59.014Z,11.35
2022-09-01T03:43:01.243Z,11.31
2022-09-01T03:48:08.917Z,11.26
2022-09-01T03:53:11.474Z,11.18
2022-09-01T03:58:14.657Z,11.12
2022-09-01T04:03:28.841Z,11.03
2022-09-01T04:08:33.460Z,11.07
2022-09-01T04:13:36.350Z,11.00
2022-09-01T04:18:40.054Z,10.92
2022-09-01T04:23:42.591Z,10.92
2022-09-01T04:28:48.296Z,10.81
2022-09-01T04:33:52.698Z,10.81
2022-09-01T04:38:56.283Z,10.81
2022-09-01T04:43:58.845Z,10.74
2022-09-01T04:49:01.211Z,10.67
2022-09-01T04:54:03.635Z,10.66
2022-09-01T04:59:07.090Z,10.71
2022-09-01T05:04:14.385Z,10.71
2022-09-01T05:09:17.391Z,10.73
2022-09-01T05:14:20.530Z,10.77
2022-09-01T05:19:24.762Z,10.87
2022-09-01T05:24:30.374Z,10.88
2022-09-01T05:29:31.859Z,10.95
2022-09-01T05:34:36.396Z,11.13
2022-09-01T05:39:38.203Z,11.27
2022-09-01T05:44:44.228Z,11.67
2022-09-01T05:49:45.809Z,11.90
2022-09-01T05:54:47.987Z,12.07
2022-09-01T05:59:54.086Z,12.32
2022-09-01T06:04:57.236Z,12.52
2022-09-01T06:09:59.980Z,12.80
2022-09-01T06:15:01.474Z,13.22
2022-09-01T06:20:10.642Z,16.16
2022-09-01T06:25:12.423Z,18.22
2022-09-01T06:30:20.166Z,18.84
2022-09-01T06:35:29.401Z,19.62
2022-09-01T06:40:30.856Z,18.95
2022-09-01T06:45:32.710Z,20.17
2022-09-01T06:55:57.584Z,20.78
2022-09-01T07:00:58.981Z,19.92
2022-09-01T07:06:02.379Z,22.85
2022-09-01T07:12:08.102Z,23.65
2022-09-01T07:16:32.586Z,23.04
2022-09-01T07:22:07.046Z,21.57
2022-09-01T07:27:09.401Z,23.03
2022-09-01T07:48:06.674Z,27.65
2022-09-01T07:53:12.515Z,26.77
2022-09-01T07:58:14.176Z,25.68
2022-09-01T08:03:16.506Z,28.18
2022-09-01T08:08:19.358Z,29.38
2022-09-01T08:13:22.183Z,28.17
2022-09-01T08:18:23.835Z,27.12
2022-09-01T08:23:27.206Z,28.61
2022-09-01T08:28:28.771Z,30.35
2022-09-01T08:33:31.103Z,28.56
2022-09-01T08:38:32.487Z,28.53
2022-09-01T08:43:52.368Z,28.15
2022-09-01T08:54:30.009Z,27.34
2022-09-01T08:59:33.465Z,27.70
2022-09-01T09:04:59.815Z,29.72
2022-09-01T09:10:12.170Z,30.10
2022-09-01T09:15:23.597Z,30.18
2022-09-01T09:20:28.032Z,30.11
2022-09-01T09:25:31.063Z,31.08
2022-09-01T09:30:33.086Z,31.63
2022-09-01T09:35:40.336Z,31.64
2022-09-01T09:41:15.974Z,31.92
2022-09-01T09:46:24.617Z,32.38
2022-09-01T09:51:28.940Z,31.19
2022-09-01T09:56:30.575Z,31.30
2022-09-01T10:01:34.511Z,29.93
2022-09-01T10:06:46.840Z,28.70
2022-09-01T10:11:52.327Z,28.58
2022-09-01T10:16:56.760Z,30.65
2022-09-01T10:21:58.138Z,26.87
2022-09-01T10:27:11.311Z,29.40
2022-09-01T10:32:34.954Z,29.63
2022-09-01T10:37:39.045Z,29.05
2022-09-01T10:42:45.342Z,25.73
2022-09-01T10:47:47.629Z,26.74
2022-09-01T10:52:50.470Z,29.49
2022-09-01T10:58:07.827Z,30.58
2022-09-01T11:03:42.043Z,27.46
2022-09-01T11:08:58.261Z,28.06
2022-09-01T11:14:00.227Z,29.45
2022-09-01T11:19:21.626Z,29.74
2022-09-01T11:24:52.036Z,29.45
2022-09-01T11:30:07.507Z,29.61
2022-09-01T11:35:17.203Z,29.80
2022-09-01T11:40:24.326Z,27.74
2022-09-01T11:45:32.007Z,27.08
2022-09-01T11:50:38.135Z,25.23
2022-09-01T11:55:43.898Z,28.05
2022-09-01T12:00:45.296Z,27.38
2022-09-01T12:05:49.392Z,26.74
2022-09-01T12:10:50.963Z,29.02
2022-09-01T12:16:18.320Z,27.10
2022-09-01T12:21:23.184Z,26.41
2022-09-01T12:26:29.736Z,25.14
2022-09-01T12:31:31.207Z,24.73
2022-09-01T12:36:36.698Z,24.91
2022-09-01T12:41:39.852Z,26.54
2022-09-01T12:46:44.949Z,27.73
2022-09-01T12:51:48.531Z,26.73
2022-09-01T12:56:51.168Z,26.83
2022-09-01T13:01:52.776Z,26.80
2022-09-01T13:06:55.448Z,27.25
2022-09-01T13:12:16.015Z,26.75
2022-09-01T13:17:17.723Z,27.06
2022-09-01T13:22:19.078Z,27.76
2022-09-01T13:27:22.107Z,27.56
2022-09-01T13:32:24.656Z,27.49
2022-09-01T13:37:26.087Z,27.52
2022-09-01T13:42:28.658Z,27.64
2022-09-01T13:47:31.011Z,27.34
2022-09-01T13:52:33.017Z,26.64
2022-09-01T13:57:36.060Z,26.23
2022-09-01T14:02:42.957Z,26.68
2022-09-01T14:07:44.484Z,26.62
2022-09-01T14:12:46.551Z,26.81
2022-09-01T14:17:49.399Z,26.78
2022-09-01T14:22:51.513Z,26.80
2022-09-01T14:27:53.369Z,26.69
2022-09-01T14:32:54.845Z,26.40
2022-09-01T14:37:56.286Z,26.40
2022-09-01T14:42:57.639Z,26.37
2022-09-01T14:48:00.697Z,25.93
2022-09-01T14:53:02.617Z,25.73
2022-09-01T14:58:04.363Z,25.67
2022-09-01T15:03:05.746Z,26.21
2022-09-01T15:08:08.099Z,26.70
2022-09-01T15:13:09.523Z,26.42
2022-09-01T15:18:10.972Z,26.37
2022-09-01T15:23:18.106Z,26.06
2022-09-01T15:28:19.711Z,25.60
2022-09-01T15:33:21.201Z,25.20
2022-09-01T15:38:26.061Z,24.78
2022-09-01T15:43:30.373Z,24.85
2022-09-01T15:48:31.785Z,24.76
2022-09-01T15:53:33.117Z,24.62
2022-09-01T15:58:59.578Z,24.60
2022-09-01T16:03:56.517Z,24.71
2022-09-01T16:08:57.938Z,24.74
2022-09-01T16:14:00.120Z,24.45
2022-09-01T16:19:20.352Z,24.21
2022-09-01T16:24:22.356Z,24.00
2022-09-01T16:29:53.099Z,23.79
2022-09-01T16:34:54.463Z,23.71
2022-09-01T16:40:04.010Z,23.59
2022-09-01T16:45:26.078Z,23.53
2022-09-01T16:50:42.921Z,23.35
2022-09-01T17:00:57.824Z,22.84
2022-09-01T17:06:13.616Z,22.94
2022-09-01T17:11:25.752Z,23.02
2022-09-01T17:16:42.146Z,22.95
2022-09-01T17:21:49.433Z,22.82
2022-09-01T17:26:51.607Z,22.71
2022-09-01T17:32:02.679Z,22.52
2022-09-01T17:37:14.036Z,22.30
2022-09-01T17:42:36.588Z,22.12
2022-09-01T17:47:44.578Z,21.92
2022-09-01T17:52:52.878Z,21.69
2022-09-01T17:58:05.902Z,21.53
2022-09-01T18:03:19.069Z,21.33
2022-09-01T18:08:35.835Z,21.14
2022-09-01T18:13:58.914Z,20.96
2022-09-01T18:19:05.589Z,20.79
2022-09-01T18:24:18.149Z,20.58
2022-09-01T18:29:20.088Z,20.38
2022-09-01T18:34:22.768Z,20.21
2022-09-01T18:39:24.122Z,20.04
2022-09-01T18:44:28.220Z,19.77
2022-09-01T18:49:39.564Z,19.66
2022-09-01T18:54:47.079Z,19.52
2022-09-01T18:59:54.711Z,19.41
2022-09-01T19:04:58.509Z,19.30
2022-09-01T19:10:05.066Z,19.19
2022-09-01T19:15:11.622Z,19.17
2022-09-01T19:20:17.099Z,19.10
2022-09-01T19:25:36.631Z,19.00
2022-09-01T19:30:48.112Z,18.89
2022-09-01T19:35:51.051Z,18.75
2022-09-01T19:40:53.655Z,18.61
2022-09-01T19:46:04.673Z,18.46
2022-09-01T19:51:14.886Z,18.30
2022-09-01T19:56:19.180Z,18.11
2022-09-01T20:01:36.654Z,17.99
2022-09-01T20:06:42.553Z,17.87
2022-09-01T20:11:47.622Z,17.82
2022-09-01T20:16:50.845Z,17.65
2022-09-01T20:21:52.205Z,17.60
2022-09-01T20:27:00.131Z,17.58
2022-09-01T20:32:02.003Z,17.61
2022-09-01T20:37:10.277Z,17.61
2022-09-01T20:42:19.767Z,17.63
2022-09-01T20:47:24.547Z,17.53
2022-09-01T20:52:36.347Z,17.61
2022-09-01T20:57:44.492Z,17.59
2022-09-01T21:02:52.709Z,17.71
2022-09-01T21:08:14.385Z,17.60
2022-09-01T21:13:27.778Z,17.60
2022-09-01T21:18:34.928Z,17.57
2022-09-01T21:23:36.339Z,17.58
2022-09-01T21:28:37.868Z,17.46
2022-09-01T21:33:39.229Z,17.67
2022-09-01T21:38:40.675Z,17.67
2022-09-01T21:43:43.843Z,17.97
2022-09-01T21:48:45.269Z,18.41
2022-09-01T21:53:46.634Z,18.86
2022-09-01T21:58:49.996Z,19.18
2022-09-01T22:03:51.450Z,19.49
2022-09-01T22:08:54.155Z,19.65
2022-09-01T22:13:57.087Z,19.77
2022-09-01T22:18:59.301Z,19.81
2022-09-01T22:24:01.689Z,19.84
2022-09-01T22:29:05.167Z,19.80
2022-09-01T22:34:07.213Z,19.79
2022-09-01T22:39:09.578Z,19.78
2022-09-01T22:44:11.090Z,19.84
2022-09-01T22:49:12.491Z,19.77
2022-09-01T22:54:14.156Z,19.65
2022-09-01T22:59:16.151Z,19.67
2022-09-01T23:04:18.233Z,19.64
2022-09-01T23:09:20.181Z,19.52
2022-09-01T23:14:21.528Z,19.46
2022-09-01T23:19:23.487Z,19.35
2022-09-01T23:24:25.210Z,19.32
2022-09-01T23:29:26.548Z,19.11
2022-09-01T23:34:27.917Z,18.96
2022-09-01T23:39:29.301Z,18.72
2022-09-01T23:44:30.953Z,18.55
2022-09-01T23:49:32.302Z,18.32
2022-09-01T23:54:34.080Z,18.29
2022-09-01T23:59:35.429Z,18.32
